sensor_id;sensor_type;location;lat;lon;timestamp;temperature;humidity
20833;DHT22;56075;51.264;7.150;2023-08-24T00:00:51;21.00;99.90
20833;DHT22;56075;51.264;7.150;2023-08-24T00:03:22;19.30;99.90
20833;DHT22;56075;51.264;7.150;2023-08-24T00:05:54;19.20;99.90
20833;DHT22;56075;51.264;7.150;2023-08-24T00:08:25;19.20;99.90
20833;DHT22;56075;51.264;7.150;2023-08-24T00:10:56;19.10;99.90
20833;DHT22;56075;51.264;7.150;2023-08-24T00:13:27;19.10;99.90
20833;DHT22;56075;51.264;7.150;2023-08-24T00:15:58;19.00;99.90
20833;DHT22;56075;51.264;7.150;2023-08-24T00:18:29;19.00;99.90
20833;DHT22;56075;51.264;7.150;2023-08-24T00:21:01;19.00;99.90
20833;DHT22;56075;51.264;7.150;2023-08-24T00:23:34;19.10;99.90
20833;DHT22;56075;51.264;7.150;2023-08-24T00:26:05;18.90;99.90
20833;DHT22;56075;51.264;7.150;2023-08-24T00:28:36;19.00;99.90
20833;DHT22;56075;51.264;7.150;2023-08-24T00:31:07;19.20;99.90
20833;DHT22;56075;51.264;7.150;2023-08-24T00:33:38;18.90;99.90
20833;DHT22;56075;51.264;7.150;2023-08-24T00:36:10;18.90;99.90
20833;DHT22;56075;51.264;7.150;2023-08-24T00:38:43;18.80;99.90
20833;DHT22;56075;51.264;7.150;2023-08-24T00:41:14;19.00;99.90
20833;DHT22;56075;51.264;7.150;2023-08-24T00:43:45;18.80;99.90
20833;DHT22;56075;51.264;7.150;2023-08-24T00:46:18;19.00;99.90
20833;DHT22;56075;51.264;7.150;2023-08-24T00:48:49;18.70;99.90
20833;DHT22;56075;51.264;7.150;2023-08-24T00:51:23;19.30;99.90
20833;DHT22;56075;51.264;7.150;2023-08-24T00:53:55;18.70;99.90
20833;DHT22;56075;51.264;7.150;2023-08-24T00:56:29;19.00;99.90
20833;DHT22;56075;51.264;7.150;2023-08-24T00:59:00;18.80;99.90
20833;DHT22;56075;51.264;7.150;2023-08-24T01:01:32;18.80;99.90
20833;DHT22;56075;51.264;7.150;2023-08-24T01:04:04;18.70;99.90
20833;DHT22;56075;51.264;7.150;2023-08-24T01:06:35;19.10;99.90
20833;DHT22;56075;51.264;7.150;2023-08-24T01:09:06;18.60;99.90
20833;DHT22;56075;51.264;7.150;2023-08-24T01:11:43;18.50;99.90
20833;DHT22;56075;51.264;7.150;2023-08-24T01:17:09;18.50;99.90
20833;DHT22;56075;51.264;7.150;2023-08-24T01:19:44;18.80;99.90
20833;DHT22;56075;51.264;7.150;2023-08-24T01:25:46;18.40;99.90
20833;DHT22;56075;51.264;7.150;2023-08-24T01:28:23;18.50;99.90
20833;DHT22;56075;51.264;7.150;2023-08-24T01:30:54;18.40;99.90
20833;DHT22;56075;51.264;7.150;2023-08-24T01:33:26;18.70;99.90
20833;DHT22;56075;51.264;7.150;2023-08-24T01:35:58;18.50;99.90
20833;DHT22;56075;51.264;7.150;2023-08-24T01:38:32;19.00;99.90
20833;DHT22;56075;51.264;7.150;2023-08-24T01:41:09;18.30;99.90
20833;DHT22;56075;51.264;7.150;2023-08-24T01:43:43;18.30;99.90
20833;DHT22;56075;51.264;7.150;2023-08-24T01:46:16;18.30;99.90
20833;DHT22;56075;51.264;7.150;2023-08-24T01:48:48;18.50;99.90
20833;DHT22;56075;51.264;7.150;2023-08-24T01:51:21;18.30;99.90
20833;DHT22;56075;51.264;7.150;2023-08-24T01:53:54;19.50;99.90
20833;DHT22;56075;51.264;7.150;2023-08-24T01:56:25;18.40;99.90
20833;DHT22;56075;51.264;7.150;2023-08-24T01:58:57;19.40;99.90
20833;DHT22;56075;51.264;7.150;2023-08-24T02:01:28;18.70;99.90
20833;DHT22;56075;51.264;7.150;2023-08-24T02:04:00;18.40;99.90
20833;DHT22;56075;51.264;7.150;2023-08-24T02:06:31;19.00;99.90
20833;DHT22;56075;51.264;7.150;2023-08-24T02:09:02;18.90;99.90
20833;DHT22;56075;51.264;7.150;2023-08-24T02:11:34;18.30;99.90
20833;DHT22;56075;51.264;7.150;2023-08-24T02:14:06;18.20;99.90
20833;DHT22;56075;51.264;7.150;2023-08-24T02:16:42;18.80;99.90
20833;DHT22;56075;51.264;7.150;2023-08-24T02:19:13;18.40;99.90
20833;DHT22;56075;51.264;7.150;2023-08-24T02:21:44;18.20;99.90
20833;DHT22;56075;51.264;7.150;2023-08-24T02:24:15;19.10;99.90
20833;DHT22;56075;51.264;7.150;2023-08-24T02:26:46;18.20;99.90
20833;DHT22;56075;51.264;7.150;2023-08-24T02:29:18;19.00;99.90
20833;DHT22;56075;51.264;7.150;2023-08-24T02:31:49;18.70;99.90
20833;DHT22;56075;51.264;7.150;2023-08-24T02:34:21;18.10;99.90
20833;DHT22;56075;51.264;7.150;2023-08-24T02:36:52;18.20;99.90
20833;DHT22;56075;51.264;7.150;2023-08-24T02:39:23;18.90;99.90
20833;DHT22;56075;51.264;7.150;2023-08-24T02:41:54;18.00;99.90
20833;DHT22;56075;51.264;7.150;2023-08-24T02:44:26;18.60;99.90
20833;DHT22;56075;51.264;7.150;2023-08-24T02:46:57;18.10;99.90
20833;DHT22;56075;51.264;7.150;2023-08-24T02:49:30;18.00;99.90
20833;DHT22;56075;51.264;7.150;2023-08-24T02:52:01;18.20;99.90
20833;DHT22;56075;51.264;7.150;2023-08-24T02:54:32;18.80;99.90
20833;DHT22;56075;51.264;7.150;2023-08-24T02:57:03;18.00;99.90
20833;DHT22;56075;51.264;7.150;2023-08-24T02:59:34;18.10;99.90
20833;DHT22;56075;51.264;7.150;2023-08-24T03:02:06;18.10;99.90
20833;DHT22;56075;51.264;7.150;2023-08-24T03:04:37;18.10;99.90
20833;DHT22;56075;51.264;7.150;2023-08-24T03:07:08;18.30;99.90
20833;DHT22;56075;51.264;7.150;2023-08-24T03:09:41;18.10;99.90
20833;DHT22;56075;51.264;7.150;2023-08-24T03:12:12;18.90;99.90
20833;DHT22;56075;51.264;7.150;2023-08-24T03:14:43;18.70;99.90
20833;DHT22;56075;51.264;7.150;2023-08-24T03:17:14;19.60;99.90
20833;DHT22;56075;51.264;7.150;2023-08-24T03:19:45;18.30;99.90
20833;DHT22;56075;51.264;7.150;2023-08-24T03:22:17;19.40;99.90
20833;DHT22;56075;51.264;7.150;2023-08-24T03:24:48;18.10;99.90
20833;DHT22;56075;51.264;7.150;2023-08-24T03:27:20;18.00;99.90
20833;DHT22;56075;51.264;7.150;2023-08-24T03:29:54;18.80;99.90
20833;DHT22;56075;51.264;7.150;2023-08-24T03:32:26;18.00;99.90
20833;DHT22;56075;51.264;7.150;2023-08-24T03:35:01;18.10;99.90
20833;DHT22;56075;51.264;7.150;2023-08-24T03:37:34;18.10;99.90
20833;DHT22;56075;51.264;7.150;2023-08-24T03:40:05;18.90;99.90
20833;DHT22;56075;51.264;7.150;2023-08-24T03:42:38;18.30;99.90
20833;DHT22;56075;51.264;7.150;2023-08-24T03:45:09;18.90;99.90
20833;DHT22;56075;51.264;7.150;2023-08-24T03:47:42;18.80;99.90
20833;DHT22;56075;51.264;7.150;2023-08-24T03:50:14;18.50;99.90
20833;DHT22;56075;51.264;7.150;2023-08-24T03:52:46;18.30;99.90
20833;DHT22;56075;51.264;7.150;2023-08-24T03:55:17;18.50;99.90
20833;DHT22;56075;51.264;7.150;2023-08-24T03:57:48;18.40;99.90
20833;DHT22;56075;51.264;7.150;2023-08-24T04:00:20;18.50;99.90
20833;DHT22;56075;51.264;7.150;2023-08-24T04:02:51;18.60;99.90
20833;DHT22;56075;51.264;7.150;2023-08-24T04:05:27;18.60;99.90
20833;DHT22;56075;51.264;7.150;2023-08-24T04:07:58;18.60;99.90
20833;DHT22;56075;51.264;7.150;2023-08-24T04:10:31;19.00;99.90
20833;DHT22;56075;51.264;7.150;2023-08-24T04:13:03;19.70;99.90
20833;DHT22;56075;51.264;7.150;2023-08-24T04:15:34;19.60;99.90
20833;DHT22;56075;51.264;7.150;2023-08-24T04:18:05;18.80;99.90
20833;DHT22;56075;51.264;7.150;2023-08-24T04:20:36;18.60;99.90
20833;DHT22;56075;51.264;7.150;2023-08-24T04:23:08;18.70;99.90
20833;DHT22;56075;51.264;7.150;2023-08-24T04:25:41;18.80;99.90
20833;DHT22;56075;51.264;7.150;2023-08-24T04:28:12;19.10;99.90
20833;DHT22;56075;51.264;7.150;2023-08-24T04:30:53;18.90;99.90
20833;DHT22;56075;51.264;7.150;2023-08-24T04:33:24;18.80;99.90
20833;DHT22;56075;51.264;7.150;2023-08-24T04:35:56;18.90;99.90
20833;DHT22;56075;51.264;7.150;2023-08-24T04:38:27;20.10;99.90
20833;DHT22;56075;51.264;7.150;2023-08-24T04:40:58;18.80;99.90
20833;DHT22;56075;51.264;7.150;2023-08-24T04:43:29;19.00;99.90
20833;DHT22;56075;51.264;7.150;2023-08-24T04:46:00;18.90;99.90
20833;DHT22;56075;51.264;7.150;2023-08-24T04:48:31;18.90;99.90
20833;DHT22;56075;51.264;7.150;2023-08-24T04:51:05;18.80;99.90
20833;DHT22;56075;51.264;7.150;2023-08-24T04:53:36;18.80;99.90
20833;DHT22;56075;51.264;7.150;2023-08-24T04:56:07;20.10;99.90
20833;DHT22;56075;51.264;7.150;2023-08-24T04:58:38;18.80;99.90
20833;DHT22;56075;51.264;7.150;2023-08-24T05:01:09;19.10;99.90
20833;DHT22;56075;51.264;7.150;2023-08-24T05:03:41;18.70;99.90
20833;DHT22;56075;51.264;7.150;2023-08-24T05:06:12;18.60;99.90
20833;DHT22;56075;51.264;7.150;2023-08-24T05:08:43;18.80;99.90
20833;DHT22;56075;51.264;7.150;2023-08-24T05:11:17;18.50;99.90
20833;DHT22;56075;51.264;7.150;2023-08-24T05:13:49;19.00;99.90
20833;DHT22;56075;51.264;7.150;2023-08-24T05:16:20;18.50;99.90
20833;DHT22;56075;51.264;7.150;2023-08-24T05:18:51;18.40;99.90
20833;DHT22;56075;51.264;7.150;2023-08-24T05:21:22;18.40;99.90
20833;DHT22;56075;51.264;7.150;2023-08-24T05:23:56;18.40;99.90
20833;DHT22;56075;51.264;7.150;2023-08-24T05:26:31;18.30;99.90
20833;DHT22;56075;51.264;7.150;2023-08-24T05:29:02;18.30;99.90
20833;DHT22;56075;51.264;7.150;2023-08-24T05:31:33;18.40;99.90
20833;DHT22;56075;51.264;7.150;2023-08-24T05:34:04;18.30;99.90
20833;DHT22;56075;51.264;7.150;2023-08-24T05:36:35;18.50;99.90
20833;DHT22;56075;51.264;7.150;2023-08-24T05:39:06;18.60;99.90
20833;DHT22;56075;51.264;7.150;2023-08-24T05:41:37;19.00;99.90
20833;DHT22;56075;51.264;7.150;2023-08-24T05:44:09;18.70;99.90
20833;DHT22;56075;51.264;7.150;2023-08-24T05:46:40;18.60;99.90
20833;DHT22;56075;51.264;7.150;2023-08-24T05:49:12;19.40;99.90
20833;DHT22;56075;51.264;7.150;2023-08-24T05:51:43;19.50;99.90
20833;DHT22;56075;51.264;7.150;2023-08-24T05:54:15;18.90;99.90
20833;DHT22;56075;51.264;7.150;2023-08-24T05:56:52;19.60;99.90
20833;DHT22;56075;51.264;7.150;2023-08-24T05:59:29;18.80;99.90
20833;DHT22;56075;51.264;7.150;2023-08-24T06:02:03;18.70;99.90
20833;DHT22;56075;51.264;7.150;2023-08-24T06:04:34;18.70;99.90
20833;DHT22;56075;51.264;7.150;2023-08-24T06:07:05;19.00;99.90
20833;DHT22;56075;51.264;7.150;2023-08-24T06:09:37;19.50;99.90
20833;DHT22;56075;51.264;7.150;2023-08-24T06:12:08;19.50;99.90
20833;DHT22;56075;51.264;7.150;2023-08-24T06:14:39;19.00;99.90
20833;DHT22;56075;51.264;7.150;2023-08-24T06:17:10;19.10;99.90
20833;DHT22;56075;51.264;7.150;2023-08-24T06:19:41;19.10;99.90
20833;DHT22;56075;51.264;7.150;2023-08-24T06:22:13;19.30;99.90
20833;DHT22;56075;51.264;7.150;2023-08-24T06:24:44;19.90;99.90
20833;DHT22;56075;51.264;7.150;2023-08-24T06:27:15;19.60;99.90
20833;DHT22;56075;51.264;7.150;2023-08-24T06:29:46;19.70;99.90
20833;DHT22;56075;51.264;7.150;2023-08-24T06:32:17;19.60;99.90
20833;DHT22;56075;51.264;7.150;2023-08-24T06:34:48;19.90;99.90
20833;DHT22;56075;51.264;7.150;2023-08-24T06:37:19;20.10;99.90
20833;DHT22;56075;51.264;7.150;2023-08-24T06:39:50;20.10;99.90
20833;DHT22;56075;51.264;7.150;2023-08-24T06:42:21;20.40;99.90
20833;DHT22;56075;51.264;7.150;2023-08-24T06:44:52;20.50;99.90
20833;DHT22;56075;51.264;7.150;2023-08-24T06:47:24;20.20;99.90
20833;DHT22;56075;51.264;7.150;2023-08-24T06:49:55;21.20;99.90
20833;DHT22;56075;51.264;7.150;2023-08-24T06:52:27;20.40;99.90
20833;DHT22;56075;51.264;7.150;2023-08-24T06:54:59;20.90;99.90
20833;DHT22;56075;51.264;7.150;2023-08-24T06:57:30;20.30;99.90
20833;DHT22;56075;51.264;7.150;2023-08-24T07:00:02;20.50;99.90
20833;DHT22;56075;51.264;7.150;2023-08-24T07:02:37;20.40;99.90
20833;DHT22;56075;51.264;7.150;2023-08-24T07:05:09;20.50;99.90
20833;DHT22;56075;51.264;7.150;2023-08-24T07:07:40;20.60;99.90
20833;DHT22;56075;51.264;7.150;2023-08-24T07:10:15;20.70;99.90
20833;DHT22;56075;51.264;7.150;2023-08-24T07:12:46;21.20;99.90
20833;DHT22;56075;51.264;7.150;2023-08-24T07:15:17;21.00;99.90
20833;DHT22;56075;51.264;7.150;2023-08-24T07:17:48;20.90;99.90
20833;DHT22;56075;51.264;7.150;2023-08-24T07:20:20;22.00;99.90
20833;DHT22;56075;51.264;7.150;2023-08-24T07:22:51;21.70;99.90
20833;DHT22;56075;51.264;7.150;2023-08-24T07:25:22;21.20;99.90
20833;DHT22;56075;51.264;7.150;2023-08-24T07:27:53;21.40;99.90
20833;DHT22;56075;51.264;7.150;2023-08-24T07:30:31;21.40;99.90
20833;DHT22;56075;51.264;7.150;2023-08-24T07:33:02;21.50;99.90
20833;DHT22;56075;51.264;7.150;2023-08-24T07:35:34;21.60;99.90
20833;DHT22;56075;51.264;7.150;2023-08-24T07:38:06;21.70;99.90
20833;DHT22;56075;51.264;7.150;2023-08-24T07:40:37;21.90;99.90
20833;DHT22;56075;51.264;7.150;2023-08-24T07:43:08;22.00;99.90
20833;DHT22;56075;51.264;7.150;2023-08-24T07:45:39;22.10;99.90
20833;DHT22;56075;51.264;7.150;2023-08-24T07:48:11;22.40;99.90
20833;DHT22;56075;51.264;7.150;2023-08-24T07:50:42;22.60;99.90
20833;DHT22;56075;51.264;7.150;2023-08-24T07:53:14;22.60;99.90
20833;DHT22;56075;51.264;7.150;2023-08-24T07:55:45;22.70;99.90
20833;DHT22;56075;51.264;7.150;2023-08-24T07:58:16;23.00;99.90
20833;DHT22;56075;51.264;7.150;2023-08-24T08:00:50;24.10;99.90
20833;DHT22;56075;51.264;7.150;2023-08-24T08:03:22;23.20;99.90
20833;DHT22;56075;51.264;7.150;2023-08-24T08:05:53;23.20;99.90
20833;DHT22;56075;51.264;7.150;2023-08-24T08:08:26;23.30;99.90
20833;DHT22;56075;51.264;7.150;2023-08-24T08:10:59;23.40;99.90
20833;DHT22;56075;51.264;7.150;2023-08-24T08:13:31;23.30;99.90
20833;DHT22;56075;51.264;7.150;2023-08-24T08:16:05;23.60;99.90
20833;DHT22;56075;51.264;7.150;2023-08-24T08:18:37;23.70;99.90
20833;DHT22;56075;51.264;7.150;2023-08-24T08:21:18;23.70;99.90
20833;DHT22;56075;51.264;7.150;2023-08-24T08:23:49;23.90;99.90
20833;DHT22;56075;51.264;7.150;2023-08-24T08:26:21;24.80;99.90
20833;DHT22;56075;51.264;7.150;2023-08-24T08:28:52;24.20;99.90
20833;DHT22;56075;51.264;7.150;2023-08-24T08:31:23;24.30;99.90
20833;DHT22;56075;51.264;7.150;2023-08-24T08:33:54;24.40;99.90
20833;DHT22;56075;51.264;7.150;2023-08-24T08:36:25;24.70;99.90
20833;DHT22;56075;51.264;7.150;2023-08-24T08:38:57;24.60;99.90
20833;DHT22;56075;51.264;7.150;2023-08-24T08:41:33;25.00;99.90
20833;DHT22;56075;51.264;7.150;2023-08-24T08:44:05;25.00;99.90
20833;DHT22;56075;51.264;7.150;2023-08-24T08:46:39;25.10;99.90
20833;DHT22;56075;51.264;7.150;2023-08-24T08:49:13;25.20;99.90
20833;DHT22;56075;51.264;7.150;2023-08-24T08:51:47;25.40;99.90
20833;DHT22;56075;51.264;7.150;2023-08-24T08:54:18;25.90;99.90
20833;DHT22;56075;51.264;7.150;2023-08-24T08:56:50;25.90;99.90
20833;DHT22;56075;51.264;7.150;2023-08-24T08:59:22;25.50;99.90
20833;DHT22;56075;51.264;7.150;2023-08-24T09:01:53;25.50;99.90
20833;DHT22;56075;51.264;7.150;2023-08-24T09:04:25;25.70;99.90
20833;DHT22;56075;51.264;7.150;2023-08-24T09:06:57;25.80;99.90
20833;DHT22;56075;51.264;7.150;2023-08-24T09:09:28;25.80;99.90
20833;DHT22;56075;51.264;7.150;2023-08-24T09:11:59;25.90;99.90
20833;DHT22;56075;51.264;7.150;2023-08-24T09:14:30;25.90;99.90
20833;DHT22;56075;51.264;7.150;2023-08-24T09:17:02;26.10;99.90
20833;DHT22;56075;51.264;7.150;2023-08-24T09:19:34;26.10;99.80
20833;DHT22;56075;51.264;7.150;2023-08-24T09:22:09;26.10;99.40
20833;DHT22;56075;51.264;7.150;2023-08-24T09:24:40;26.20;99.60
20833;DHT22;56075;51.264;7.150;2023-08-24T09:27:17;26.30;99.40
20833;DHT22;56075;51.264;7.150;2023-08-24T09:29:52;26.40;99.20
20833;DHT22;56075;51.264;7.150;2023-08-24T09:32:24;26.50;98.90
20833;DHT22;56075;51.264;7.150;2023-08-24T09:35:08;26.50;99.10
20833;DHT22;56075;51.264;7.150;2023-08-24T09:37:40;26.70;98.80
20833;DHT22;56075;51.264;7.150;2023-08-24T09:40:12;26.90;98.80
20833;DHT22;56075;51.264;7.150;2023-08-24T09:42:43;26.80;98.40
20833;DHT22;56075;51.264;7.150;2023-08-24T09:45:15;27.50;98.40
20833;DHT22;56075;51.264;7.150;2023-08-24T09:47:49;27.10;98.00
20833;DHT22;56075;51.264;7.150;2023-08-24T09:50:22;27.20;98.10
20833;DHT22;56075;51.264;7.150;2023-08-24T09:52:54;27.20;97.50
20833;DHT22;56075;51.264;7.150;2023-08-24T09:55:29;27.30;97.20
20833;DHT22;56075;51.264;7.150;2023-08-24T09:58:03;27.40;96.90
20833;DHT22;56075;51.264;7.150;2023-08-24T10:00:37;27.70;96.80
20833;DHT22;56075;51.264;7.150;2023-08-24T10:03:10;27.70;96.50
20833;DHT22;56075;51.264;7.150;2023-08-24T10:05:42;27.90;96.10
20833;DHT22;56075;51.264;7.150;2023-08-24T10:08:14;27.90;95.90
20833;DHT22;56075;51.264;7.150;2023-08-24T10:10:52;27.90;95.70
20833;DHT22;56075;51.264;7.150;2023-08-24T10:13:36;28.10;95.50
20833;DHT22;56075;51.264;7.150;2023-08-24T10:16:08;28.20;95.10
20833;DHT22;56075;51.264;7.150;2023-08-24T10:18:40;28.30;95.00
20833;DHT22;56075;51.264;7.150;2023-08-24T10:21:11;28.40;95.00
20833;DHT22;56075;51.264;7.150;2023-08-24T10:23:43;28.40;94.70
20833;DHT22;56075;51.264;7.150;2023-08-24T10:26:16;28.60;94.60
20833;DHT22;56075;51.264;7.150;2023-08-24T10:28:50;28.50;94.40
20833;DHT22;56075;51.264;7.150;2023-08-24T10:31:21;28.90;94.40
20833;DHT22;56075;51.264;7.150;2023-08-24T10:33:54;28.80;94.30
20833;DHT22;56075;51.264;7.150;2023-08-24T10:36:25;28.90;94.10
20833;DHT22;56075;51.264;7.150;2023-08-24T10:39:02;29.00;93.90
20833;DHT22;56075;51.264;7.150;2023-08-24T10:41:50;29.20;93.60
20833;DHT22;56075;51.264;7.150;2023-08-24T10:44:36;29.20;93.20
20833;DHT22;56075;51.264;7.150;2023-08-24T10:50:06;29.50;92.70
20833;DHT22;56075;51.264;7.150;2023-08-24T10:52:38;29.60;92.40
20833;DHT22;56075;51.264;7.150;2023-08-24T10:55:23;29.70;92.60
20833;DHT22;56075;51.264;7.150;2023-08-24T10:57:57;29.60;92.30
20833;DHT22;56075;51.264;7.150;2023-08-24T11:00:29;29.60;92.30
20833;DHT22;56075;51.264;7.150;2023-08-24T11:03:00;29.40;92.10
20833;DHT22;56075;51.264;7.150;2023-08-24T11:05:32;29.50;92.10
20833;DHT22;56075;51.264;7.150;2023-08-24T11:08:05;29.40;92.00
20833;DHT22;56075;51.264;7.150;2023-08-24T11:10:46;29.40;92.00
20833;DHT22;56075;51.264;7.150;2023-08-24T11:13:18;29.40;91.90
20833;DHT22;56075;51.264;7.150;2023-08-24T11:15:54;29.40;91.80
20833;DHT22;56075;51.264;7.150;2023-08-24T11:18:28;29.40;91.80
20833;DHT22;56075;51.264;7.150;2023-08-24T11:23:33;29.60;91.80
20833;DHT22;56075;51.264;7.150;2023-08-24T11:26:05;29.80;91.60
20833;DHT22;56075;51.264;7.150;2023-08-24T11:28:37;30.00;91.20
20833;DHT22;56075;51.264;7.150;2023-08-24T11:31:09;30.10;91.00
20833;DHT22;56075;51.264;7.150;2023-08-24T11:33:41;30.30;90.80
20833;DHT22;56075;51.264;7.150;2023-08-24T11:36:12;30.40;90.70
20833;DHT22;56075;51.264;7.150;2023-08-24T11:38:43;30.50;90.60
20833;DHT22;56075;51.264;7.150;2023-08-24T11:41:15;30.30;90.30
20833;DHT22;56075;51.264;7.150;2023-08-24T11:43:48;30.30;90.20
20833;DHT22;56075;51.264;7.150;2023-08-24T11:46:21;30.20;90.20
20833;DHT22;56075;51.264;7.150;2023-08-24T11:48:52;29.90;90.20
20833;DHT22;56075;51.264;7.150;2023-08-24T11:51:24;29.70;90.50
20833;DHT22;56075;51.264;7.150;2023-08-24T11:53:56;29.60;90.70
20833;DHT22;56075;51.264;7.150;2023-08-24T11:56:29;29.40;90.80
20833;DHT22;56075;51.264;7.150;2023-08-24T11:59:00;29.30;90.80
20833;DHT22;56075;51.264;7.150;2023-08-24T12:01:32;29.30;90.80
20833;DHT22;56075;51.264;7.150;2023-08-24T12:04:03;29.30;90.70
20833;DHT22;56075;51.264;7.150;2023-08-24T12:06:35;29.40;90.60
20833;DHT22;56075;51.264;7.150;2023-08-24T12:09:06;29.30;90.50
20833;DHT22;56075;51.264;7.150;2023-08-24T12:11:37;29.30;90.60
20833;DHT22;56075;51.264;7.150;2023-08-24T12:14:16;29.90;90.80
20833;DHT22;56075;51.264;7.150;2023-08-24T12:16:48;29.50;90.60
20833;DHT22;56075;51.264;7.150;2023-08-24T12:19:24;29.60;90.60
20833;DHT22;56075;51.264;7.150;2023-08-24T12:21:55;29.50;90.70
20833;DHT22;56075;51.264;7.150;2023-08-24T12:24:26;29.50;90.40
20833;DHT22;56075;51.264;7.150;2023-08-24T12:26:57;29.50;90.30
20833;DHT22;56075;51.264;7.150;2023-08-24T12:29:34;29.80;90.30
20833;DHT22;56075;51.264;7.150;2023-08-24T12:32:05;30.00;90.20
20833;DHT22;56075;51.264;7.150;2023-08-24T12:34:36;29.70;90.10
20833;DHT22;56075;51.264;7.150;2023-08-24T12:37:07;29.60;90.10
20833;DHT22;56075;51.264;7.150;2023-08-24T12:39:39;29.60;90.30
20833;DHT22;56075;51.264;7.150;2023-08-24T12:42:10;29.40;90.50
20833;DHT22;56075;51.264;7.150;2023-08-24T12:44:42;29.20;90.70
20833;DHT22;56075;51.264;7.150;2023-08-24T12:47:13;29.00;91.00
20833;DHT22;56075;51.264;7.150;2023-08-24T12:49:46;28.80;91.40
20833;DHT22;56075;51.264;7.150;2023-08-24T12:52:18;28.50;91.70
20833;DHT22;56075;51.264;7.150;2023-08-24T12:54:49;28.10;92.00
20833;DHT22;56075;51.264;7.150;2023-08-24T12:57:20;28.00;92.10
20833;DHT22;56075;51.264;7.150;2023-08-24T12:59:51;27.70;92.40
20833;DHT22;56075;51.264;7.150;2023-08-24T13:02:23;27.70;92.80
20833;DHT22;56075;51.264;7.150;2023-08-24T13:04:54;27.70;93.10
20833;DHT22;56075;51.264;7.150;2023-08-24T13:07:26;27.70;93.10
20833;DHT22;56075;51.264;7.150;2023-08-24T13:09:57;27.90;93.00
20833;DHT22;56075;51.264;7.150;2023-08-24T13:12:28;28.00;92.90
20833;DHT22;56075;51.264;7.150;2023-08-24T13:15:00;28.00;92.70
20833;DHT22;56075;51.264;7.150;2023-08-24T13:17:31;28.20;92.60
20833;DHT22;56075;51.264;7.150;2023-08-24T13:20:02;28.20;92.50
20833;DHT22;56075;51.264;7.150;2023-08-24T13:22:34;28.20;92.40
20833;DHT22;56075;51.264;7.150;2023-08-24T13:25:05;28.30;92.30
20833;DHT22;56075;51.264;7.150;2023-08-24T13:27:36;28.20;92.40
20833;DHT22;56075;51.264;7.150;2023-08-24T13:30:08;28.20;92.40
20833;DHT22;56075;51.264;7.150;2023-08-24T13:32:39;28.10;92.40
20833;DHT22;56075;51.264;7.150;2023-08-24T13:35:10;28.00;92.40
20833;DHT22;56075;51.264;7.150;2023-08-24T13:37:41;28.00;92.50
20833;DHT22;56075;51.264;7.150;2023-08-24T13:40:12;28.00;92.60
20833;DHT22;56075;51.264;7.150;2023-08-24T13:42:44;27.60;92.70
20833;DHT22;56075;51.264;7.150;2023-08-24T13:45:15;27.60;92.90
20833;DHT22;56075;51.264;7.150;2023-08-24T13:47:47;27.50;93.00
20833;DHT22;56075;51.264;7.150;2023-08-24T13:50:18;27.40;93.20
20833;DHT22;56075;51.264;7.150;2023-08-24T13:52:49;27.20;93.40
20833;DHT22;56075;51.264;7.150;2023-08-24T13:55:21;27.00;93.70
20833;DHT22;56075;51.264;7.150;2023-08-24T13:57:52;26.80;94.10
20833;DHT22;56075;51.264;7.150;2023-08-24T14:00:23;26.60;94.70
20833;DHT22;56075;51.264;7.150;2023-08-24T14:02:54;26.40;95.10
20833;DHT22;56075;51.264;7.150;2023-08-24T14:05:26;27.60;96.40
20833;DHT22;56075;51.264;7.150;2023-08-24T14:07:57;26.30;96.00
20833;DHT22;56075;51.264;7.150;2023-08-24T14:10:28;26.10;96.20
20833;DHT22;56075;51.264;7.150;2023-08-24T14:13:00;26.10;96.60
20833;DHT22;56075;51.264;7.150;2023-08-24T14:15:33;26.20;96.50
20833;DHT22;56075;51.264;7.150;2023-08-24T14:18:04;26.10;96.80
20833;DHT22;56075;51.264;7.150;2023-08-24T14:20:35;26.00;97.10
20833;DHT22;56075;51.264;7.150;2023-08-24T14:23:06;26.00;97.30
20833;DHT22;56075;51.264;7.150;2023-08-24T14:25:38;26.10;97.40
20833;DHT22;56075;51.264;7.150;2023-08-24T14:28:09;25.90;97.70
20833;DHT22;56075;51.264;7.150;2023-08-24T14:30:40;26.40;98.30
20833;DHT22;56075;51.264;7.150;2023-08-24T14:33:11;25.80;98.50
20833;DHT22;56075;51.264;7.150;2023-08-24T14:35:50;25.70;98.90
20833;DHT22;56075;51.264;7.150;2023-08-24T14:38:21;25.70;99.60
20833;DHT22;56075;51.264;7.150;2023-08-24T14:40:53;26.60;99.90
20833;DHT22;56075;51.264;7.150;2023-08-24T14:43:24;25.60;99.90
20833;DHT22;56075;51.264;7.150;2023-08-24T14:45:55;25.30;99.90
20833;DHT22;56075;51.264;7.150;2023-08-24T14:48:26;25.50;99.90
20833;DHT22;56075;51.264;7.150;2023-08-24T14:50:57;25.40;99.90
20833;DHT22;56075;51.264;7.150;2023-08-24T14:53:28;25.60;99.90
20833;DHT22;56075;51.264;7.150;2023-08-24T14:56:03;25.10;99.90
20833;DHT22;56075;51.264;7.150;2023-08-24T14:58:34;25.20;99.90
20833;DHT22;56075;51.264;7.150;2023-08-24T15:01:05;25.10;99.90
20833;DHT22;56075;51.264;7.150;2023-08-24T15:03:36;26.00;99.90
20833;DHT22;56075;51.264;7.150;2023-08-24T15:06:07;24.90;99.90
20833;DHT22;56075;51.264;7.150;2023-08-24T15:08:39;24.90;99.90
20833;DHT22;56075;51.264;7.150;2023-08-24T15:11:14;25.80;99.90
20833;DHT22;56075;51.264;7.150;2023-08-24T15:13:47;24.50;99.90
20833;DHT22;56075;51.264;7.150;2023-08-24T15:16:18;24.50;99.90
20833;DHT22;56075;51.264;7.150;2023-08-24T15:18:49;24.90;99.90
20833;DHT22;56075;51.264;7.150;2023-08-24T15:21:20;24.50;99.90
20833;DHT22;56075;51.264;7.150;2023-08-24T15:23:52;24.20;99.90
20833;DHT22;56075;51.264;7.150;2023-08-24T15:26:23;24.00;99.90
20833;DHT22;56075;51.264;7.150;2023-08-24T15:31:38;23.70;99.90
20833;DHT22;56075;51.264;7.150;2023-08-24T15:34:10;23.50;99.90
20833;DHT22;56075;51.264;7.150;2023-08-24T15:36:41;23.40;99.90
20833;DHT22;56075;51.264;7.150;2023-08-24T15:39:13;23.20;99.90
20833;DHT22;56075;51.264;7.150;2023-08-24T15:41:44;23.20;99.90
20833;DHT22;56075;51.264;7.150;2023-08-24T15:44:15;23.30;99.90
20833;DHT22;56075;51.264;7.150;2023-08-24T15:46:46;23.20;99.90
20833;DHT22;56075;51.264;7.150;2023-08-24T15:49:17;23.00;99.90
20833;DHT22;56075;51.264;7.150;2023-08-24T15:51:49;22.90;99.90
20833;DHT22;56075;51.264;7.150;2023-08-24T15:54:20;22.90;99.90
20833;DHT22;56075;51.264;7.150;2023-08-24T15:56:52;22.90;99.90
20833;DHT22;56075;51.264;7.150;2023-08-24T15:59:24;22.80;99.90
20833;DHT22;56075;51.264;7.150;2023-08-24T16:01:56;22.20;99.90
20833;DHT22;56075;51.264;7.150;2023-08-24T16:04:27;22.00;99.90
20833;DHT22;56075;51.264;7.150;2023-08-24T16:06:58;22.40;99.90
20833;DHT22;56075;51.264;7.150;2023-08-24T16:09:30;22.20;99.90
20833;DHT22;56075;51.264;7.150;2023-08-24T16:12:01;22.60;99.90
20833;DHT22;56075;51.264;7.150;2023-08-24T16:14:34;21.40;99.90